METAR AND TAF INFORMATION
METAR FOR LIMC
ADDS - METARS form results

(0649 UTC 19 November 2017)
Data provider http://aviationweather.gov/adds/metars/
 
METAR text: LIMC 190620Z VRB01KT 9999 R35R/1400U R17L/P1500N R35L/P1500N MIFG NSC M00/M01 Q1013 NOSIG
Conditions at: LIMC (MILANO/MALPENSA , IT) observed 0620 UTC 19 November 2017
Temperature: 0.0°C (32°F)
Dewpoint: -1.0°C (30°F) [RH = 93%]
Pressure (altimeter): 29.91 inches Hg (1013.0 mb)
Winds: variable direction winds at 1 MPH (1 knots; 0.5 m/s)
Visibility: 6 or more miles (10+ km)
Ceiling: at least 12,000 feet AGL
Clouds: sky clear below 12,000 feet AGL
Weather: MIFG  (shallow fog)

METAR text: LIMC 190550Z 02004KT CAVOK M01/M01 Q1014 NOSIG
Conditions at: LIMC (MILANO/MALPENSA , IT) observed 0550 UTC 19 November 2017
Temperature: -1.0°C (30°F)
Dewpoint: -1.0°C (30°F) [RH = 100%]
Pressure (altimeter): 29.94 inches Hg (1014.0 mb)
Winds: from the NNE (20 degrees) at 5 MPH (4 knots; 2.1 m/s)
Visibility: 6 or more miles (10+ km)
Ceiling: ceiling and visibility are OK
Clouds: unknown
Weather: no significant weather observed at this time

Forecast for: LIMC (MILANO/MALPENSA , IT)
Text: TAF LIMC 190500Z 1906/2012 VRB05KT CAVOK
Forecast period: 0600 UTC 19 November 2017 to 1200 UTC 20 November 2017
Forecast type: FROM: standard forecast or significant change
Winds: variable direction winds at 6 MPH (5 knots; 2.6 m/s)
Visibility: 6 or more miles (10+ km)
Clouds: not forecast
Weather: NSW  (no significant weather)
Text: TEMPO 1906/1908 3000 BCFG
Forecast period: 0600 to 0800 UTC 19 November 2017
Forecast type: TEMPORARY: The following changes expected for less than half the time period
Visibility: 1.86 miles (2.99 km)
Weather: BCFG  (patches of fog)
Text: TEMPO 2000/2008 3000 BCFG
Forecast period: 0000 to 0800 UTC 20 November 2017
Forecast type: TEMPORARY: The following changes expected for less than half the time period
Visibility: 1.86 miles (2.99 km)
Weather: BCFG  (patches of fog)

 AIRPORT MAP

 RUNWAY INFORMATION
Runway 17L Runway length 12861 ft Runway width 197 ft
Runway elevation 745 ft Runway displaced threshold 3094 ft Runway heading 170
Runway 35R Runway length 12861 ft Runway width 197 ft
Runway elevation 691 ft Runway displaced threshold 0 ft Runway heading 350
Runway 17R Runway length 12861 ft Runway width 197 ft
Runway elevation 764 ft Runway displaced threshold 0 ft Runway heading 170
Runway 35L Runway length 12861 ft Runway width 197 ft
Runway elevation 696 ft Runway displaced threshold 1329 ft Runway heading 350

 AIRPORT FREQUENCIES
Type APP Name MILANO APP Frequency 132.7 MHZ
Type ATIS Name ATIS Frequency 120.025 MHZ
Type CLD Name CLNC DEL Frequency 120.9 MHZ
Type DEP Name MILANO DEP Frequency 126.75 MHZ
Type GND Name GND Frequency 121.9 MHZ
Type TWR Name TWR Frequency 119 MHZ

 AIRPORT NEAR NAVIGATION AIDS
Type VOR-DME Name Malpensa Frequency 111200 KHZ
Type NDB Name Malpensa Frequency 364 KHZ